sensor_id;sensor_type;location;lat;lon;timestamp;pressure;altitude;pressure_sealevel;temperature;humidity
75317;BME280;63913;51.492;10.368;2023-07-29T00:00:56;97747.59;;;18.39;91.50
75317;BME280;63913;51.492;10.368;2023-07-29T00:03:22;97740.59;;;18.41;90.99
75317;BME280;63913;51.492;10.368;2023-07-29T00:05:48;97734.75;;;18.31;90.64
75317;BME280;63913;51.492;10.368;2023-07-29T00:08:13;97732.25;;;18.25;91.04
75317;BME280;63913;51.492;10.368;2023-07-29T00:10:39;97737.53;;;18.23;90.47
75317;BME280;63913;51.492;10.368;2023-07-29T00:13:05;97744.47;;;18.23;90.39
75317;BME280;63913;51.492;10.368;2023-07-29T00:15:31;97745.50;;;18.14;90.64
75317;BME280;63913;51.492;10.368;2023-07-29T00:17:57;97737.84;;;18.07;90.49
75317;BME280;63913;51.492;10.368;2023-07-29T00:20:22;97739.78;;;17.96;90.64
75317;BME280;63913;51.492;10.368;2023-07-29T00:22:48;97751.03;;;17.98;91.07
75317;BME280;63913;51.492;10.368;2023-07-29T00:25:15;97748.69;;;17.84;90.97
75317;BME280;63913;51.492;10.368;2023-07-29T00:27:42;97739.25;;;17.78;92.11
75317;BME280;63913;51.492;10.368;2023-07-29T00:30:07;97731.44;;;17.80;91.39
75317;BME280;63913;51.492;10.368;2023-07-29T00:32:36;97730.72;;;17.72;90.94
75317;BME280;63913;51.492;10.368;2023-07-29T00:35:03;97730.00;;;17.64;91.80
75317;BME280;63913;51.492;10.368;2023-07-29T00:37:30;97727.47;;;17.59;91.69
75317;BME280;63913;51.492;10.368;2023-07-29T00:39:56;97722.22;;;17.61;91.67
75317;BME280;63913;51.492;10.368;2023-07-29T00:42:21;97728.28;;;17.60;91.39
75317;BME280;63913;51.492;10.368;2023-07-29T00:44:46;97718.81;;;17.57;91.58
75317;BME280;63913;51.492;10.368;2023-07-29T00:47:12;97721.47;;;17.54;90.82
75317;BME280;63913;51.492;10.368;2023-07-29T00:49:41;97720.72;;;17.47;91.25
75317;BME280;63913;51.492;10.368;2023-07-29T00:52:07;97723.53;;;17.35;91.35
75317;BME280;63913;51.492;10.368;2023-07-29T00:54:32;97716.59;;;17.36;91.18
75317;BME280;63913;51.492;10.368;2023-07-29T00:56:58;97716.63;;;17.34;91.22
75317;BME280;63913;51.492;10.368;2023-07-29T00:59:23;97714.94;;;17.32;91.94
75317;BME280;63913;51.492;10.368;2023-07-29T01:01:49;97714.94;;;17.32;91.77
75317;BME280;63913;51.492;10.368;2023-07-29T01:04:14;97706.28;;;17.31;91.77
75317;BME280;63913;51.492;10.368;2023-07-29T01:06:50;97711.63;;;17.24;91.47
75317;BME280;63913;51.492;10.368;2023-07-29T01:11:57;97726.59;;;17.09;91.64
75317;BME280;63913;51.492;10.368;2023-07-29T01:14:29;97729.09;;;17.12;91.47
75317;BME280;63913;51.492;10.368;2023-07-29T01:17:03;97733.53;;;17.07;91.43
75317;BME280;63913;51.492;10.368;2023-07-29T01:22:34;97731.84;;;17.03;91.40
75317;BME280;63913;51.492;10.368;2023-07-29T01:24:59;97723.19;;;17.03;92.13
75317;BME280;63913;51.492;10.368;2023-07-29T01:27:25;97719.81;;;16.99;91.95
75317;BME280;63913;51.492;10.368;2023-07-29T01:29:52;97726.84;;;16.93;93.08
75317;BME280;63913;51.492;10.368;2023-07-29T01:32:28;97713.75;;;16.99;92.69
75317;BME280;63913;51.492;10.368;2023-07-29T01:35:00;97714.59;;;17.01;92.88
75317;BME280;63913;51.492;10.368;2023-07-29T01:37:31;97710.25;;;17.01;92.93
75317;BME280;63913;51.492;10.368;2023-07-29T01:39:59;97708.53;;;17.02;92.56
75317;BME280;63913;51.492;10.368;2023-07-29T01:42:25;97715.38;;;17.04;92.53
75317;BME280;63913;51.492;10.368;2023-07-29T01:44:52;97714.50;;;17.05;92.29
75317;BME280;63913;51.492;10.368;2023-07-29T01:47:17;97720.72;;;16.95;92.41
75317;BME280;63913;51.492;10.368;2023-07-29T01:49:43;97721.53;;;16.99;92.69
75317;BME280;63913;51.492;10.368;2023-07-29T01:52:09;97706.88;;;16.95;93.14
75317;BME280;63913;51.492;10.368;2023-07-29T01:54:34;97712.88;;;17.00;93.43
75317;BME280;63913;51.492;10.368;2023-07-29T01:57:00;97712.84;;;17.01;93.55
75317;BME280;63913;51.492;10.368;2023-07-29T01:59:25;97710.28;;;17.00;93.40
75317;BME280;63913;51.492;10.368;2023-07-29T02:01:50;97702.38;;;17.07;93.60
75317;BME280;63913;51.492;10.368;2023-07-29T02:04:17;97711.88;;;17.08;93.82
75317;BME280;63913;51.492;10.368;2023-07-29T02:06:43;97704.94;;;17.09;94.18
75317;BME280;63913;51.492;10.368;2023-07-29T02:09:08;97694.47;;;17.12;94.24
75317;BME280;63913;51.492;10.368;2023-07-29T02:11:33;97694.41;;;17.18;94.11
75317;BME280;63913;51.492;10.368;2023-07-29T02:13:59;97690.84;;;17.22;94.20
75317;BME280;63913;51.492;10.368;2023-07-29T02:16:24;97692.53;;;17.26;94.20
75317;BME280;63913;51.492;10.368;2023-07-29T02:18:50;97684.69;;;17.28;94.95
75317;BME280;63913;51.492;10.368;2023-07-29T02:21:16;97682.19;;;17.22;94.93
75317;BME280;63913;51.492;10.368;2023-07-29T02:23:41;97680.47;;;17.21;95.67
75317;BME280;63913;51.492;10.368;2023-07-29T02:26:07;97684.72;;;17.26;95.60
75317;BME280;63913;51.492;10.368;2023-07-29T02:28:32;97688.13;;;17.30;95.29
75317;BME280;63913;51.492;10.368;2023-07-29T02:31:20;97694.13;;;17.35;95.33
75317;BME280;63913;51.492;10.368;2023-07-29T02:33:46;97691.47;;;17.36;95.74
75317;BME280;63913;51.492;10.368;2023-07-29T02:36:13;97689.84;;;17.31;96.28
75317;BME280;63913;51.492;10.368;2023-07-29T02:38:39;97688.88;;;17.36;96.06
75317;BME280;63913;51.492;10.368;2023-07-29T02:41:05;97694.03;;;17.39;96.31
75317;BME280;63913;51.492;10.368;2023-07-29T02:43:30;97688.81;;;17.39;95.97
75317;BME280;63913;51.492;10.368;2023-07-29T02:45:56;97682.66;;;17.43;96.19
75317;BME280;63913;51.492;10.368;2023-07-29T02:48:21;97694.72;;;17.49;96.16
75317;BME280;63913;51.492;10.368;2023-07-29T02:50:46;97691.13;;;17.54;96.23
75317;BME280;63913;51.492;10.368;2023-07-29T02:53:13;97684.97;;;17.60;95.63
75317;BME280;63913;51.492;10.368;2023-07-29T02:55:41;97684.91;;;17.65;95.33
75317;BME280;63913;51.492;10.368;2023-07-29T02:58:07;97686.56;;;17.69;95.43
75317;BME280;63913;51.492;10.368;2023-07-29T03:00:33;97680.44;;;17.73;95.27
75317;BME280;63913;51.492;10.368;2023-07-29T03:02:59;97689.00;;;17.76;95.25
75317;BME280;63913;51.492;10.368;2023-07-29T03:05:27;97694.06;;;17.84;94.54
75317;BME280;63913;51.492;10.368;2023-07-29T03:07:53;97693.25;;;17.82;94.42
75317;BME280;63913;51.492;10.368;2023-07-29T03:10:18;97691.38;;;17.90;93.68
75317;BME280;63913;51.492;10.368;2023-07-29T03:12:44;97682.72;;;17.88;94.89
75317;BME280;63913;51.492;10.368;2023-07-29T03:15:09;97677.47;;;17.91;95.75
75317;BME280;63913;51.492;10.368;2023-07-29T03:17:35;97667.13;;;17.88;96.14
75317;BME280;63913;51.492;10.368;2023-07-29T03:20:00;97665.44;;;17.85;96.52
75317;BME280;63913;51.492;10.368;2023-07-29T03:22:26;97675.03;;;17.83;96.75
75317;BME280;63913;51.492;10.368;2023-07-29T03:24:51;97684.59;;;17.81;97.54
75317;BME280;63913;51.492;10.368;2023-07-29T03:27:16;97688.13;;;17.77;97.68
75317;BME280;63913;51.492;10.368;2023-07-29T03:29:42;97685.47;;;17.80;98.38
75317;BME280;63913;51.492;10.368;2023-07-29T03:32:07;97678.59;;;17.76;97.32
75317;BME280;63913;51.492;10.368;2023-07-29T03:34:33;97673.34;;;17.79;97.39
75317;BME280;63913;51.492;10.368;2023-07-29T03:37:00;97681.91;;;17.84;97.19
75317;BME280;63913;51.492;10.368;2023-07-29T03:39:26;97672.44;;;17.83;97.83
75317;BME280;63913;51.492;10.368;2023-07-29T03:41:51;97669.94;;;17.77;97.88
75317;BME280;63913;51.492;10.368;2023-07-29T03:44:17;97669.13;;;17.75;97.54
75317;BME280;63913;51.492;10.368;2023-07-29T03:46:44;97665.59;;;17.78;97.89
75317;BME280;63913;51.492;10.368;2023-07-29T03:49:10;97659.47;;;17.80;97.97
75317;BME280;63913;51.492;10.368;2023-07-29T03:51:35;97647.38;;;17.78;98.24
75317;BME280;63913;51.492;10.368;2023-07-29T03:54:01;97640.53;;;17.75;97.55
75317;BME280;63913;51.492;10.368;2023-07-29T03:56:26;97636.16;;;17.76;97.94
75317;BME280;63913;51.492;10.368;2023-07-29T03:58:52;97634.38;;;17.78;97.56
75317;BME280;63913;51.492;10.368;2023-07-29T04:01:19;97630.91;;;17.77;97.00
75317;BME280;63913;51.492;10.368;2023-07-29T04:03:45;97630.13;;;17.74;97.07
75317;BME280;63913;51.492;10.368;2023-07-29T04:06:12;97635.44;;;17.68;97.86
75317;BME280;63913;51.492;10.368;2023-07-29T04:08:37;97646.81;;;17.61;99.05
75317;BME280;63913;51.492;10.368;2023-07-29T04:11:02;97645.97;;;17.60;98.43
75317;BME280;63913;51.492;10.368;2023-07-29T04:13:28;97655.47;;;17.64;97.59
75317;BME280;63913;51.492;10.368;2023-07-29T04:15:53;97645.09;;;17.63;98.29
75317;BME280;63913;51.492;10.368;2023-07-29T04:18:19;97647.63;;;17.67;98.78
75317;BME280;63913;51.492;10.368;2023-07-29T04:20:46;97641.44;;;17.73;98.73
75317;BME280;63913;51.492;10.368;2023-07-29T04:23:11;97633.59;;;17.74;98.54
75317;BME280;63913;51.492;10.368;2023-07-29T04:25:36;97630.91;;;17.77;98.70
75317;BME280;63913;51.492;10.368;2023-07-29T04:28:02;97627.41;;;17.80;98.80
75317;BME280;63913;51.492;10.368;2023-07-29T04:30:28;97616.03;;;17.84;97.75
75317;BME280;63913;51.492;10.368;2023-07-29T04:32:54;97621.16;;;17.88;98.38
75317;BME280;63913;51.492;10.368;2023-07-29T04:35:20;97629.81;;;17.89;97.98
75317;BME280;63913;51.492;10.368;2023-07-29T04:37:46;97623.72;;;17.91;98.48
75317;BME280;63913;51.492;10.368;2023-07-29T04:40:13;97620.16;;;17.94;97.90
75317;BME280;63913;51.492;10.368;2023-07-29T04:42:39;97622.69;;;17.99;97.28
75317;BME280;63913;51.492;10.368;2023-07-29T04:45:04;97619.16;;;18.01;97.79
75317;BME280;63913;51.492;10.368;2023-07-29T04:47:31;97620.84;;;18.04;97.05
75317;BME280;63913;51.492;10.368;2023-07-29T04:49:57;97617.44;;;18.00;97.32
75317;BME280;63913;51.492;10.368;2023-07-29T04:52:22;97618.22;;;18.04;97.42
75317;BME280;63913;51.492;10.368;2023-07-29T04:54:47;97599.97;;;18.07;97.20
75317;BME280;63913;51.492;10.368;2023-07-29T04:57:13;97603.28;;;18.13;96.42
75317;BME280;63913;51.492;10.368;2023-07-29T04:59:38;97599.78;;;18.14;96.62
75317;BME280;63913;51.492;10.368;2023-07-29T05:02:04;97598.06;;;18.13;96.05
75317;BME280;63913;51.492;10.368;2023-07-29T05:04:29;97610.25;;;18.11;96.26
75317;BME280;63913;51.492;10.368;2023-07-29T05:06:55;97620.63;;;18.13;96.83
75317;BME280;63913;51.492;10.368;2023-07-29T05:09:20;97624.28;;;18.04;99.10
75317;BME280;63913;51.492;10.368;2023-07-29T05:11:47;97627.00;;;18.00;100.00
75317;BME280;63913;51.492;10.368;2023-07-29T05:14:14;97639.22;;;17.95;100.00
75317;BME280;63913;51.492;10.368;2023-07-29T05:16:41;97643.75;;;17.86;100.00
75317;BME280;63913;51.492;10.368;2023-07-29T05:19:07;97631.72;;;17.81;100.00
75317;BME280;63913;51.492;10.368;2023-07-29T05:21:33;97618.00;;;17.74;100.00
75317;BME280;63913;51.492;10.368;2023-07-29T05:23:58;97610.94;;;17.79;100.00
75317;BME280;63913;51.492;10.368;2023-07-29T05:26:24;97614.44;;;17.78;100.00
75317;BME280;63913;51.492;10.368;2023-07-29T05:28:49;97614.38;;;17.81;100.00
75317;BME280;63913;51.492;10.368;2023-07-29T05:31:15;97614.34;;;17.83;100.00
75317;BME280;63913;51.492;10.368;2023-07-29T05:33:40;97616.09;;;17.82;100.00
75317;BME280;63913;51.492;10.368;2023-07-29T05:36:06;97619.47;;;17.86;100.00
75317;BME280;63913;51.492;10.368;2023-07-29T05:38:31;97615.22;;;17.83;100.00
75317;BME280;63913;51.492;10.368;2023-07-29T05:40:57;97625.50;;;17.88;100.00
75317;BME280;63913;51.492;10.368;2023-07-29T05:43:24;97633.28;;;17.89;100.00
75317;BME280;63913;51.492;10.368;2023-07-29T05:45:50;97622.88;;;17.89;100.00
75317;BME280;63913;51.492;10.368;2023-07-29T05:48:17;97627.97;;;17.94;100.00
75317;BME280;63913;51.492;10.368;2023-07-29T05:50:43;97629.81;;;17.90;100.00
75317;BME280;63913;51.492;10.368;2023-07-29T05:53:09;97631.53;;;17.90;100.00
75317;BME280;63913;51.492;10.368;2023-07-29T05:55:34;97629.75;;;17.92;100.00
75317;BME280;63913;51.492;10.368;2023-07-29T05:57:59;97629.72;;;17.93;100.00
75317;BME280;63913;51.492;10.368;2023-07-29T06:00:25;97627.97;;;17.94;100.00
75317;BME280;63913;51.492;10.368;2023-07-29T06:02:50;97621.88;;;17.95;100.00
75317;BME280;63913;51.492;10.368;2023-07-29T06:05:19;97620.94;;;17.99;100.00
75317;BME280;63913;51.492;10.368;2023-07-29T06:07:45;97616.59;;;18.00;100.00
75317;BME280;63913;51.492;10.368;2023-07-29T06:10:13;97612.19;;;18.02;100.00
75317;BME280;63913;51.492;10.368;2023-07-29T06:12:42;97608.69;;;18.04;100.00
75317;BME280;63913;51.492;10.368;2023-07-29T06:15:08;97611.31;;;18.03;100.00
75317;BME280;63913;51.492;10.368;2023-07-29T06:17:34;97608.69;;;18.04;100.00
75317;BME280;63913;51.492;10.368;2023-07-29T06:19:59;97612.16;;;18.03;100.00
75317;BME280;63913;51.492;10.368;2023-07-29T06:22:25;97616.44;;;18.07;100.00
75317;BME280;63913;51.492;10.368;2023-07-29T06:24:50;97618.06;;;18.11;100.00
75317;BME280;63913;51.492;10.368;2023-07-29T06:27:16;97621.50;;;18.13;100.00
75317;BME280;63913;51.492;10.368;2023-07-29T06:29:41;97619.72;;;18.15;100.00
75317;BME280;63913;51.492;10.368;2023-07-29T06:32:07;97623.13;;;18.17;100.00
75317;BME280;63913;51.492;10.368;2023-07-29T06:34:32;97613.59;;;18.16;100.00
75317;BME280;63913;51.492;10.368;2023-07-29T06:36:58;97610.06;;;18.20;100.00
75317;BME280;63913;51.492;10.368;2023-07-29T06:39:23;97606.53;;;18.23;100.00
75317;BME280;63913;51.492;10.368;2023-07-29T06:41:48;97590.75;;;18.30;100.00
75317;BME280;63913;51.492;10.368;2023-07-29T06:44:16;97594.94;;;18.36;100.00
75317;BME280;63913;51.492;10.368;2023-07-29T06:46:42;97594.06;;;18.37;100.00
75317;BME280;63913;51.492;10.368;2023-07-29T06:49:07;97601.94;;;18.34;99.70
75317;BME280;63913;51.492;10.368;2023-07-29T06:51:32;97609.69;;;18.37;100.00
75317;BME280;63913;51.492;10.368;2023-07-29T06:54:00;97602.88;;;18.32;100.00
75317;BME280;63913;51.492;10.368;2023-07-29T06:56:26;97614.06;;;18.35;99.90
75317;BME280;63913;51.492;10.368;2023-07-29T06:58:51;97612.38;;;18.33;100.00
75317;BME280;63913;51.492;10.368;2023-07-29T07:01:17;97615.78;;;18.36;99.52
75317;BME280;63913;51.492;10.368;2023-07-29T07:03:42;97609.03;;;18.27;100.00
75317;BME280;63913;51.492;10.368;2023-07-29T07:06:08;97615.16;;;18.25;100.00
75317;BME280;63913;51.492;10.368;2023-07-29T07:08:33;97608.19;;;18.25;100.00
75317;BME280;63913;51.492;10.368;2023-07-29T07:10:58;97609.91;;;18.26;100.00
75317;BME280;63913;51.492;10.368;2023-07-29T07:13:24;97609.91;;;18.26;100.00
75317;BME280;63913;51.492;10.368;2023-07-29T07:15:49;97606.41;;;18.29;100.00
75317;BME280;63913;51.492;10.368;2023-07-29T07:18:15;97605.47;;;18.32;100.00
75317;BME280;63913;51.492;10.368;2023-07-29T07:20:40;97607.16;;;18.33;100.00
75317;BME280;63913;51.492;10.368;2023-07-29T07:23:06;97613.22;;;18.33;100.00
75317;BME280;63913;51.492;10.368;2023-07-29T07:25:35;97600.13;;;18.38;100.00
75317;BME280;63913;51.492;10.368;2023-07-29T07:28:01;97602.56;;;18.44;100.00
75317;BME280;63913;51.492;10.368;2023-07-29T07:30:26;97595.63;;;18.44;100.00
75317;BME280;63913;51.492;10.368;2023-07-29T07:32:52;97601.50;;;18.52;100.00
75317;BME280;63913;51.492;10.368;2023-07-29T07:35:17;97601.44;;;18.55;100.00
75317;BME280;63913;51.492;10.368;2023-07-29T07:37:44;97597.00;;;18.60;98.51
75317;BME280;63913;51.492;10.368;2023-07-29T07:40:10;97592.50;;;18.67;99.61
75317;BME280;63913;51.492;10.368;2023-07-29T07:42:35;97604.47;;;18.74;98.60
75317;BME280;63913;51.492;10.368;2023-07-29T07:45:01;97598.31;;;18.78;98.57
75317;BME280;63913;51.492;10.368;2023-07-29T07:47:26;97596.63;;;18.76;98.17
75317;BME280;63913;51.492;10.368;2023-07-29T07:49:51;97585.31;;;18.77;97.13
75317;BME280;63913;51.492;10.368;2023-07-29T07:52:18;97591.25;;;18.82;97.91
75317;BME280;63913;51.492;10.368;2023-07-29T07:54:43;97586.97;;;18.81;97.09
75317;BME280;63913;51.492;10.368;2023-07-29T07:57:09;97589.44;;;18.85;96.39
75317;BME280;63913;51.492;10.368;2023-07-29T07:59:34;97589.44;;;18.85;96.94
75317;BME280;63913;51.492;10.368;2023-07-29T08:01:59;97596.44;;;18.83;97.19
75317;BME280;63913;51.492;10.368;2023-07-29T08:04:25;97596.59;;;18.77;97.80
75317;BME280;63913;51.492;10.368;2023-07-29T08:06:50;97593.97;;;18.77;97.59
75317;BME280;63913;51.492;10.368;2023-07-29T08:09:16;97600.16;;;18.73;98.07
75317;BME280;63913;51.492;10.368;2023-07-29T08:11:41;97605.47;;;18.68;98.23
75317;BME280;63913;51.492;10.368;2023-07-29T08:14:06;97599.47;;;18.65;99.11
75317;BME280;63913;51.492;10.368;2023-07-29T08:16:32;97595.09;;;18.67;97.87
75317;BME280;63913;51.492;10.368;2023-07-29T08:18:57;97598.72;;;18.61;98.76
75317;BME280;63913;51.492;10.368;2023-07-29T08:21:23;97599.63;;;18.59;99.06
75317;BME280;63913;51.492;10.368;2023-07-29T08:23:48;97602.28;;;18.57;100.00
75317;BME280;63913;51.492;10.368;2023-07-29T08:26:14;97598.88;;;18.54;100.00
75317;BME280;63913;51.492;10.368;2023-07-29T08:28:40;97607.63;;;18.50;99.89
75317;BME280;63913;51.492;10.368;2023-07-29T08:31:06;97602.56;;;18.44;100.00
75317;BME280;63913;51.492;10.368;2023-07-29T08:33:32;97607.75;;;18.45;100.00
75317;BME280;63913;51.492;10.368;2023-07-29T08:35:59;97599.91;;;18.47;100.00
75317;BME280;63913;51.492;10.368;2023-07-29T08:38:25;97601.56;;;18.49;100.00
75317;BME280;63913;51.492;10.368;2023-07-29T08:43:34;97594.47;;;18.57;100.00
75317;BME280;63913;51.492;10.368;2023-07-29T08:46:03;97583.06;;;18.63;100.00
75317;BME280;63913;51.492;10.368;2023-07-29T08:48:33;97575.97;;;18.68;100.00
75317;BME280;63913;51.492;10.368;2023-07-29T08:51:03;97565.47;;;18.73;99.96
75317;BME280;63913;51.492;10.368;2023-07-29T08:53:29;97575.81;;;18.74;99.08
75317;BME280;63913;51.492;10.368;2023-07-29T08:55:55;97578.22;;;18.82;99.54
75317;BME280;63913;51.492;10.368;2023-07-29T08:58:21;97582.59;;;18.81;99.86
75317;BME280;63913;51.492;10.368;2023-07-29T09:00:48;97573.03;;;18.82;99.03
75317;BME280;63913;51.492;10.368;2023-07-29T09:03:14;97566.84;;;18.86;100.00
75317;BME280;63913;51.492;10.368;2023-07-29T09:05:40;97574.44;;;18.95;99.43
75317;BME280;63913;51.492;10.368;2023-07-29T09:08:06;97579.53;;;18.98;99.96
75317;BME280;63913;51.492;10.368;2023-07-29T09:10:36;97584.56;;;19.05;99.11
75317;BME280;63913;51.492;10.368;2023-07-29T09:13:05;97585.28;;;19.12;97.56
75317;BME280;63913;51.492;10.368;2023-07-29T09:15:32;97586.84;;;19.18;96.27
75317;BME280;63913;51.492;10.368;2023-07-29T09:17:59;97591.72;;;19.30;98.14
75317;BME280;63913;51.492;10.368;2023-07-29T09:20:26;97591.78;;;19.28;95.06
75317;BME280;63913;51.492;10.368;2023-07-29T09:22:53;97574.41;;;19.29;94.89
75317;BME280;63913;51.492;10.368;2023-07-29T09:25:24;97581.03;;;19.39;95.78
75317;BME280;63913;51.492;10.368;2023-07-29T09:27:50;97590.53;;;19.41;95.99
75317;BME280;63913;51.492;10.368;2023-07-29T09:30:16;97582.88;;;19.37;93.61
75317;BME280;63913;51.492;10.368;2023-07-29T09:32:41;97589.81;;;19.36;93.91
75317;BME280;63913;51.492;10.368;2023-07-29T09:35:11;97591.69;;;19.31;94.84
75317;BME280;63913;51.492;10.368;2023-07-29T09:37:38;97596.91;;;19.31;95.64
75317;BME280;63913;51.492;10.368;2023-07-29T09:40:03;97589.94;;;19.32;95.69
75317;BME280;63913;51.492;10.368;2023-07-29T09:42:29;97602.06;;;19.33;94.42
75317;BME280;63913;51.492;10.368;2023-07-29T09:44:54;97599.47;;;19.33;94.37
75317;BME280;63913;51.492;10.368;2023-07-29T09:47:20;97599.38;;;19.37;94.30
75317;BME280;63913;51.492;10.368;2023-07-29T09:49:47;97596.59;;;19.43;92.34
75317;BME280;63913;51.492;10.368;2023-07-29T09:52:15;97592.19;;;19.46;91.97
75317;BME280;63913;51.492;10.368;2023-07-29T09:54:42;97593.00;;;19.48;90.08
75317;BME280;63913;51.492;10.368;2023-07-29T09:57:08;97590.16;;;19.57;92.44
75317;BME280;63913;51.492;10.368;2023-07-29T09:59:34;97582.47;;;19.81;93.50
75317;BME280;63913;51.492;10.368;2023-07-29T10:02:00;97581.00;;;20.02;89.50
75317;BME280;63913;51.492;10.368;2023-07-29T10:04:25;97591.69;;;20.23;88.26
75317;BME280;63913;51.492;10.368;2023-07-29T10:06:52;97575.53;;;20.39;89.15
75317;BME280;63913;51.492;10.368;2023-07-29T10:09:20;97577.44;;;20.61;87.12
75317;BME280;63913;51.492;10.368;2023-07-29T10:11:45;97587.09;;;20.59;85.51
75317;BME280;63913;51.492;10.368;2023-07-29T10:14:11;97588.75;;;20.61;84.46
75317;BME280;63913;51.492;10.368;2023-07-29T10:16:37;97585.44;;;20.56;85.71
75317;BME280;63913;51.492;10.368;2023-07-29T10:19:04;97573.06;;;20.61;84.70
75317;BME280;63913;51.492;10.368;2023-07-29T10:21:30;97581.06;;;20.83;84.80
75317;BME280;63913;51.492;10.368;2023-07-29T10:23:58;97578.13;;;20.92;82.99
75317;BME280;63913;51.492;10.368;2023-07-29T10:26:26;97574.72;;;20.90;81.73
75317;BME280;63913;51.492;10.368;2023-07-29T10:28:54;97582.69;;;20.85;80.63
75317;BME280;63913;51.492;10.368;2023-07-29T10:31:22;97578.28;;;20.61;79.59
75317;BME280;63913;51.492;10.368;2023-07-29T10:33:48;97576.78;;;20.54;81.19
75317;BME280;63913;51.492;10.368;2023-07-29T10:36:14;97584.66;;;20.52;81.98
75317;BME280;63913;51.492;10.368;2023-07-29T10:38:40;97572.81;;;20.69;81.38
75317;BME280;63913;51.492;10.368;2023-07-29T10:41:07;97579.44;;;20.79;81.46
75317;BME280;63913;51.492;10.368;2023-07-29T10:43:36;97573.09;;;20.86;80.17
75317;BME280;63913;51.492;10.368;2023-07-29T10:46:22;97572.47;;;20.79;79.09
75317;BME280;63913;51.492;10.368;2023-07-29T10:48:52;97567.75;;;20.90;77.84
75317;BME280;63913;51.492;10.368;2023-07-29T10:51:25;97568.13;;;21.05;75.14
75317;BME280;63913;51.492;10.368;2023-07-29T10:54:00;97560.19;;;21.08;75.89
75317;BME280;63913;51.492;10.368;2023-07-29T10:56:36;97558.41;;;21.33;75.47
75317;BME280;63913;51.492;10.368;2023-07-29T11:01:38;97555.56;;;21.64;75.50
75317;BME280;63913;51.492;10.368;2023-07-29T11:12:51;97554.34;;;22.19;67.44
75317;BME280;63913;51.492;10.368;2023-07-29T11:15:21;97556.34;;;22.34;68.05
75317;BME280;63913;51.492;10.368;2023-07-29T11:17:49;97541.66;;;22.52;67.97
75317;BME280;63913;51.492;10.368;2023-07-29T11:20:16;97540.09;;;22.68;66.81
75317;BME280;63913;51.492;10.368;2023-07-29T11:22:42;97542.50;;;22.74;64.50
75317;BME280;63913;51.492;10.368;2023-07-29T11:25:14;97536.72;;;22.87;65.08
75317;BME280;63913;51.492;10.368;2023-07-29T11:27:40;97537.13;;;22.98;62.35
75317;BME280;63913;51.492;10.368;2023-07-29T11:30:08;97545.00;;;22.98;64.84
75317;BME280;63913;51.492;10.368;2023-07-29T11:32:35;97547.38;;;22.83;63.07
75317;BME280;63913;51.492;10.368;2023-07-29T11:35:02;97541.19;;;22.63;61.26
75317;BME280;63913;51.492;10.368;2023-07-29T11:37:28;97528.78;;;22.46;64.00
75317;BME280;63913;51.492;10.368;2023-07-29T11:39:53;97545.06;;;22.32;65.33
75317;BME280;63913;51.492;10.368;2023-07-29T11:42:19;97549.09;;;22.19;65.18
75317;BME280;63913;51.492;10.368;2023-07-29T11:44:45;97539.13;;;22.05;63.72
75317;BME280;63913;51.492;10.368;2023-07-29T11:47:12;97552.94;;;21.87;63.10
75317;BME280;63913;51.492;10.368;2023-07-29T11:49:39;97548.03;;;21.78;64.87
75317;BME280;63913;51.492;10.368;2023-07-29T11:52:09;97542.97;;;21.74;65.71
75317;BME280;63913;51.492;10.368;2023-07-29T11:54:38;97553.63;;;21.69;65.58
75317;BME280;63913;51.492;10.368;2023-07-29T11:57:08;97552.72;;;21.70;63.86
75317;BME280;63913;51.492;10.368;2023-07-29T11:59:35;97547.75;;;21.62;62.30
75317;BME280;63913;51.492;10.368;2023-07-29T12:02:06;97554.72;;;21.63;63.99
75317;BME280;63913;51.492;10.368;2023-07-29T12:04:33;97554.13;;;21.55;63.53
75317;BME280;63913;51.492;10.368;2023-07-29T12:06:59;97548.81;;;21.57;63.85
75317;BME280;63913;51.492;10.368;2023-07-29T12:09:26;97555.75;;;21.81;63.91
75317;BME280;63913;51.492;10.368;2023-07-29T12:11:52;97541.03;;;22.02;62.53
75317;BME280;63913;51.492;10.368;2023-07-29T12:14:18;97552.72;;;22.15;62.34
75317;BME280;63913;51.492;10.368;2023-07-29T12:16:44;97554.38;;;22.18;63.51
75317;BME280;63913;51.492;10.368;2023-07-29T12:19:13;97551.88;;;22.15;63.02
75317;BME280;63913;51.492;10.368;2023-07-29T12:21:40;97560.53;;;22.17;63.80
75317;BME280;63913;51.492;10.368;2023-07-29T12:24:06;97551.16;;;22.33;64.91
75317;BME280;63913;51.492;10.368;2023-07-29T12:26:33;97555.78;;;22.48;63.82
75317;BME280;63913;51.492;10.368;2023-07-29T12:28:58;97555.34;;;22.59;61.98
75317;BME280;63913;51.492;10.368;2023-07-29T12:31:31;97564.31;;;22.53;63.38
75317;BME280;63913;51.492;10.368;2023-07-29T12:33:57;97554.69;;;22.32;63.36
75317;BME280;63913;51.492;10.368;2023-07-29T12:36:27;97561.63;;;22.11;63.80
75317;BME280;63913;51.492;10.368;2023-07-29T12:39:05;97562.25;;;21.94;64.32
75317;BME280;63913;51.492;10.368;2023-07-29T12:41:30;97570.41;;;21.87;64.30
75317;BME280;63913;51.492;10.368;2023-07-29T12:43:55;97578.06;;;21.68;63.26
75317;BME280;63913;51.492;10.368;2023-07-29T12:46:21;97564.47;;;21.58;64.35
75317;BME280;63913;51.492;10.368;2023-07-29T12:48:46;97563.63;;;21.58;63.98
75317;BME280;63913;51.492;10.368;2023-07-29T12:51:12;97564.69;;;21.52;64.00
75317;BME280;63913;51.492;10.368;2023-07-29T12:53:37;97565.22;;;21.39;68.19
75317;BME280;63913;51.492;10.368;2023-07-29T12:56:03;97577.06;;;21.24;71.45
75317;BME280;63913;51.492;10.368;2023-07-29T12:58:28;97568.94;;;21.07;71.11
75317;BME280;63913;51.492;10.368;2023-07-29T13:00:54;97556.03;;;21.01;71.22
75317;BME280;63913;51.492;10.368;2023-07-29T13:03:19;97566.41;;;21.04;71.04